sensor_id;sensor_type;location;lat;lon;timestamp;P1;durP1;ratioP1;P2;durP2;ratioP2
4957;SDS011;2494;51.872;9.688;2022-09-01T00:00:03;1.40;;;1.30;;
4957;SDS011;2494;51.872;9.688;2022-09-01T00:02:31;1.40;;;1.30;;
4957;SDS011;2494;51.872;9.688;2022-09-01T00:04:58;1.87;;;1.30;;
4957;SDS011;2494;51.872;9.688;2022-09-01T00:07:26;1.40;;;1.30;;
4957;SDS011;2494;51.872;9.688;2022-09-01T00:09:54;1.00;;;0.90;;
4957;SDS011;2494;51.872;9.688;2022-09-01T00:12:20;1.20;;;1.10;;
4957;SDS011;2494;51.872;9.688;2022-09-01T00:14:49;2.17;;;1.13;;
4957;SDS011;2494;51.872;9.688;2022-09-01T00:17:18;1.87;;;1.47;;
4957;SDS011;2494;51.872;9.688;2022-09-01T00:19:44;1.67;;;1.30;;
4957;SDS011;2494;51.872;9.688;2022-09-01T00:22:11;3.87;;;1.27;;
4957;SDS011;2494;51.872;9.688;2022-09-01T00:24:37;6.63;;;1.60;;
4957;SDS011;2494;51.872;9.688;2022-09-01T00:27:04;2.20;;;1.10;;
4957;SDS011;2494;51.872;9.688;2022-09-01T00:29:31;1.47;;;1.37;;
4957;SDS011;2494;51.872;9.688;2022-09-01T00:31:57;2.23;;;1.10;;
4957;SDS011;2494;51.872;9.688;2022-09-01T00:34:25;1.50;;;1.30;;
4957;SDS011;2494;51.872;9.688;2022-09-01T00:36:52;1.17;;;1.07;;
4957;SDS011;2494;51.872;9.688;2022-09-01T00:39:18;1.23;;;1.07;;
4957;SDS011;2494;51.872;9.688;2022-09-01T00:41:45;3.90;;;1.43;;
4957;SDS011;2494;51.872;9.688;2022-09-01T00:44:13;1.50;;;1.40;;
4957;SDS011;2494;51.872;9.688;2022-09-01T00:46:41;1.20;;;1.10;;
4957;SDS011;2494;51.872;9.688;2022-09-01T00:49:10;1.20;;;1.10;;
4957;SDS011;2494;51.872;9.688;2022-09-01T00:51:39;1.43;;;1.10;;
4957;SDS011;2494;51.872;9.688;2022-09-01T00:54:06;2.33;;;1.50;;
4957;SDS011;2494;51.872;9.688;2022-09-01T00:56:34;1.40;;;1.30;;
4957;SDS011;2494;51.872;9.688;2022-09-01T00:59:03;1.80;;;1.30;;
4957;SDS011;2494;51.872;9.688;2022-09-01T01:01:31;2.50;;;1.20;;
4957;SDS011;2494;51.872;9.688;2022-09-01T01:03:59;2.23;;;1.30;;
4957;SDS011;2494;51.872;9.688;2022-09-01T01:06:26;2.10;;;1.60;;
4957;SDS011;2494;51.872;9.688;2022-09-01T01:08:58;1.30;;;1.20;;
4957;SDS011;2494;51.872;9.688;2022-09-01T01:11:26;1.60;;;1.50;;
4957;SDS011;2494;51.872;9.688;2022-09-01T01:13:55;1.60;;;1.03;;
4957;SDS011;2494;51.872;9.688;2022-09-01T01:16:22;1.40;;;1.30;;
4957;SDS011;2494;51.872;9.688;2022-09-01T01:18:49;1.50;;;1.20;;
4957;SDS011;2494;51.872;9.688;2022-09-01T01:21:18;1.27;;;1.17;;
4957;SDS011;2494;51.872;9.688;2022-09-01T01:24:05;1.30;;;1.20;;
4957;SDS011;2494;51.872;9.688;2022-09-01T01:26:35;1.30;;;1.20;;
4957;SDS011;2494;51.872;9.688;2022-09-01T01:29:02;1.47;;;1.30;;
4957;SDS011;2494;51.872;9.688;2022-09-01T01:31:29;2.60;;;1.40;;
4957;SDS011;2494;51.872;9.688;2022-09-01T01:33:56;1.33;;;1.23;;
4957;SDS011;2494;51.872;9.688;2022-09-01T01:36:24;1.47;;;1.30;;
4957;SDS011;2494;51.872;9.688;2022-09-01T01:38:56;1.40;;;1.30;;
4957;SDS011;2494;51.872;9.688;2022-09-01T01:41:27;1.93;;;1.40;;
4957;SDS011;2494;51.872;9.688;2022-09-01T01:43:56;4.10;;;1.33;;
4957;SDS011;2494;51.872;9.688;2022-09-01T01:46:23;1.50;;;1.40;;
4957;SDS011;2494;51.872;9.688;2022-09-01T01:48:50;1.17;;;1.07;;
4957;SDS011;2494;51.872;9.688;2022-09-01T01:51:18;1.30;;;1.20;;
4957;SDS011;2494;51.872;9.688;2022-09-01T01:53:45;1.13;;;1.03;;
4957;SDS011;2494;51.872;9.688;2022-09-01T01:56:16;1.40;;;1.30;;
4957;SDS011;2494;51.872;9.688;2022-09-01T01:58:43;1.40;;;1.30;;
4957;SDS011;2494;51.872;9.688;2022-09-01T02:01:11;1.60;;;1.50;;
4957;SDS011;2494;51.872;9.688;2022-09-01T02:03:38;1.40;;;1.30;;
4957;SDS011;2494;51.872;9.688;2022-09-01T02:06:06;1.30;;;1.20;;
4957;SDS011;2494;51.872;9.688;2022-09-01T02:08:34;1.43;;;1.33;;
4957;SDS011;2494;51.872;9.688;2022-09-01T02:11:02;2.20;;;1.30;;
4957;SDS011;2494;51.872;9.688;2022-09-01T02:13:29;1.60;;;1.50;;
4957;SDS011;2494;51.872;9.688;2022-09-01T02:15:56;2.33;;;1.90;;
4957;SDS011;2494;51.872;9.688;2022-09-01T02:18:26;2.77;;;2.57;;
4957;SDS011;2494;51.872;9.688;2022-09-01T02:20:54;2.73;;;1.50;;
4957;SDS011;2494;51.872;9.688;2022-09-01T02:23:23;1.40;;;1.30;;
4957;SDS011;2494;51.872;9.688;2022-09-01T02:25:51;1.63;;;1.50;;
4957;SDS011;2494;51.872;9.688;2022-09-01T02:28:18;1.60;;;1.50;;
4957;SDS011;2494;51.872;9.688;2022-09-01T02:30:47;1.93;;;1.83;;
4957;SDS011;2494;51.872;9.688;2022-09-01T02:33:16;1.50;;;1.40;;
4957;SDS011;2494;51.872;9.688;2022-09-01T02:35:45;3.73;;;1.40;;
4957;SDS011;2494;51.872;9.688;2022-09-01T02:38:12;1.70;;;1.60;;
4957;SDS011;2494;51.872;9.688;2022-09-01T02:40:39;1.77;;;1.57;;
4957;SDS011;2494;51.872;9.688;2022-09-01T02:43:09;1.40;;;1.30;;
4957;SDS011;2494;51.872;9.688;2022-09-01T02:45:37;1.50;;;1.40;;
4957;SDS011;2494;51.872;9.688;2022-09-01T02:48:08;1.87;;;1.20;;
4957;SDS011;2494;51.872;9.688;2022-09-01T02:50:35;1.60;;;1.50;;
4957;SDS011;2494;51.872;9.688;2022-09-01T02:53:03;1.70;;;1.60;;
4957;SDS011;2494;51.872;9.688;2022-09-01T02:55:33;1.77;;;1.67;;
4957;SDS011;2494;51.872;9.688;2022-09-01T02:58:00;1.47;;;1.37;;
4957;SDS011;2494;51.872;9.688;2022-09-01T03:00:27;1.50;;;1.40;;
4957;SDS011;2494;51.872;9.688;2022-09-01T03:02:55;1.50;;;1.40;;
4957;SDS011;2494;51.872;9.688;2022-09-01T03:05:23;1.40;;;1.30;;
4957;SDS011;2494;51.872;9.688;2022-09-01T03:07:52;1.77;;;1.67;;
4957;SDS011;2494;51.872;9.688;2022-09-01T03:10:23;1.83;;;1.70;;
4957;SDS011;2494;51.872;9.688;2022-09-01T03:12:54;1.43;;;1.33;;
4957;SDS011;2494;51.872;9.688;2022-09-01T03:15:21;2.03;;;1.40;;
4957;SDS011;2494;51.872;9.688;2022-09-01T03:17:49;1.40;;;1.30;;
4957;SDS011;2494;51.872;9.688;2022-09-01T03:20:16;1.60;;;1.50;;
4957;SDS011;2494;51.872;9.688;2022-09-01T03:22:45;2.07;;;1.30;;
4957;SDS011;2494;51.872;9.688;2022-09-01T03:25:12;1.40;;;1.30;;
4957;SDS011;2494;51.872;9.688;2022-09-01T03:27:41;1.93;;;1.70;;
4957;SDS011;2494;51.872;9.688;2022-09-01T03:30:08;1.40;;;1.30;;
4957;SDS011;2494;51.872;9.688;2022-09-01T03:32:35;1.60;;;1.50;;
4957;SDS011;2494;51.872;9.688;2022-09-01T03:35:02;2.00;;;1.50;;
4957;SDS011;2494;51.872;9.688;2022-09-01T03:37:29;1.30;;;1.20;;
4957;SDS011;2494;51.872;9.688;2022-09-01T03:39:55;1.63;;;1.53;;
4957;SDS011;2494;51.872;9.688;2022-09-01T03:42:24;3.30;;;1.50;;
4957;SDS011;2494;51.872;9.688;2022-09-01T03:44:53;1.40;;;1.30;;
4957;SDS011;2494;51.872;9.688;2022-09-01T03:47:20;1.80;;;1.50;;
4957;SDS011;2494;51.872;9.688;2022-09-01T03:49:48;3.67;;;1.50;;
4957;SDS011;2494;51.872;9.688;2022-09-01T03:52:15;1.80;;;1.70;;
4957;SDS011;2494;51.872;9.688;2022-09-01T03:54:41;1.50;;;1.40;;
4957;SDS011;2494;51.872;9.688;2022-09-01T03:57:09;2.03;;;1.93;;
4957;SDS011;2494;51.872;9.688;2022-09-01T03:59:36;1.60;;;1.50;;
4957;SDS011;2494;51.872;9.688;2022-09-01T04:02:08;2.20;;;2.03;;
4957;SDS011;2494;51.872;9.688;2022-09-01T04:04:35;1.70;;;1.60;;
4957;SDS011;2494;51.872;9.688;2022-09-01T04:07:02;1.70;;;1.60;;
4957;SDS011;2494;51.872;9.688;2022-09-01T04:09:28;1.60;;;1.50;;
4957;SDS011;2494;51.872;9.688;2022-09-01T04:11:55;1.50;;;1.40;;
4957;SDS011;2494;51.872;9.688;2022-09-01T04:14:21;2.90;;;1.53;;
4957;SDS011;2494;51.872;9.688;2022-09-01T04:16:49;1.60;;;1.50;;
4957;SDS011;2494;51.872;9.688;2022-09-01T04:19:35;1.20;;;1.10;;
4957;SDS011;2494;51.872;9.688;2022-09-01T04:22:03;2.67;;;1.20;;
4957;SDS011;2494;51.872;9.688;2022-09-01T04:24:32;3.47;;;1.60;;
4957;SDS011;2494;51.872;9.688;2022-09-01T04:26:59;2.00;;;1.63;;
4957;SDS011;2494;51.872;9.688;2022-09-01T04:29:27;4.13;;;1.83;;
4957;SDS011;2494;51.872;9.688;2022-09-01T04:31:55;1.83;;;1.40;;
4957;SDS011;2494;51.872;9.688;2022-09-01T04:34:26;1.80;;;1.57;;
4957;SDS011;2494;51.872;9.688;2022-09-01T04:36:54;1.50;;;1.40;;
4957;SDS011;2494;51.872;9.688;2022-09-01T04:39:23;1.63;;;1.53;;
4957;SDS011;2494;51.872;9.688;2022-09-01T04:41:49;2.10;;;1.90;;
4957;SDS011;2494;51.872;9.688;2022-09-01T04:44:16;1.77;;;1.60;;
4957;SDS011;2494;51.872;9.688;2022-09-01T04:46:43;1.50;;;1.40;;
4957;SDS011;2494;51.872;9.688;2022-09-01T04:49:12;3.23;;;1.40;;
4957;SDS011;2494;51.872;9.688;2022-09-01T04:51:44;2.30;;;1.70;;
4957;SDS011;2494;51.872;9.688;2022-09-01T04:54:13;2.13;;;2.03;;
4957;SDS011;2494;51.872;9.688;2022-09-01T04:56:40;1.40;;;1.30;;
4957;SDS011;2494;51.872;9.688;2022-09-01T04:59:07;1.80;;;1.70;;
4957;SDS011;2494;51.872;9.688;2022-09-01T05:01:35;1.63;;;1.53;;
4957;SDS011;2494;51.872;9.688;2022-09-01T05:04:07;1.50;;;1.40;;
4957;SDS011;2494;51.872;9.688;2022-09-01T05:06:36;2.27;;;1.60;;
4957;SDS011;2494;51.872;9.688;2022-09-01T05:09:05;3.50;;;1.60;;
4957;SDS011;2494;51.872;9.688;2022-09-01T05:11:35;2.10;;;1.57;;
4957;SDS011;2494;51.872;9.688;2022-09-01T05:14:03;4.40;;;1.40;;
4957;SDS011;2494;51.872;9.688;2022-09-01T05:16:31;1.47;;;1.37;;
4957;SDS011;2494;51.872;9.688;2022-09-01T05:18:58;1.70;;;1.30;;
4957;SDS011;2494;51.872;9.688;2022-09-01T05:21:25;1.60;;;1.50;;
4957;SDS011;2494;51.872;9.688;2022-09-01T05:23:54;1.93;;;1.70;;
4957;SDS011;2494;51.872;9.688;2022-09-01T05:26:21;1.70;;;1.60;;
4957;SDS011;2494;51.872;9.688;2022-09-01T05:28:51;1.83;;;1.73;;
4957;SDS011;2494;51.872;9.688;2022-09-01T05:31:19;1.83;;;1.70;;
4957;SDS011;2494;51.872;9.688;2022-09-01T05:33:45;2.40;;;1.57;;
4957;SDS011;2494;51.872;9.688;2022-09-01T05:36:13;1.60;;;1.50;;
4957;SDS011;2494;51.872;9.688;2022-09-01T05:38:40;2.50;;;2.00;;
4957;SDS011;2494;51.872;9.688;2022-09-01T05:41:07;4.30;;;1.43;;
4957;SDS011;2494;51.872;9.688;2022-09-01T05:43:35;3.70;;;1.90;;
4957;SDS011;2494;51.872;9.688;2022-09-01T05:46:06;1.80;;;1.70;;
4957;SDS011;2494;51.872;9.688;2022-09-01T05:48:33;1.73;;;1.63;;
4957;SDS011;2494;51.872;9.688;2022-09-01T05:51:04;2.00;;;1.80;;
4957;SDS011;2494;51.872;9.688;2022-09-01T05:53:30;1.83;;;1.70;;
4957;SDS011;2494;51.872;9.688;2022-09-01T05:55:58;4.70;;;2.00;;
4957;SDS011;2494;51.872;9.688;2022-09-01T05:58:31;1.57;;;1.47;;
4957;SDS011;2494;51.872;9.688;2022-09-01T06:00:59;2.30;;;1.30;;
4957;SDS011;2494;51.872;9.688;2022-09-01T06:03:27;5.67;;;1.30;;
4957;SDS011;2494;51.872;9.688;2022-09-01T06:06:00;5.57;;;1.40;;
4957;SDS011;2494;51.872;9.688;2022-09-01T06:08:27;2.13;;;1.10;;
4957;SDS011;2494;51.872;9.688;2022-09-01T06:10:53;3.47;;;1.20;;
4957;SDS011;2494;51.872;9.688;2022-09-01T06:13:20;1.93;;;1.20;;
4957;SDS011;2494;51.872;9.688;2022-09-01T06:15:47;1.10;;;1.00;;
4957;SDS011;2494;51.872;9.688;2022-09-01T06:18:14;1.47;;;1.23;;
4957;SDS011;2494;51.872;9.688;2022-09-01T06:20:44;1.20;;;1.10;;
4957;SDS011;2494;51.872;9.688;2022-09-01T06:23:12;3.00;;;1.20;;
4957;SDS011;2494;51.872;9.688;2022-09-01T06:25:43;1.60;;;1.07;;
4957;SDS011;2494;51.872;9.688;2022-09-01T06:28:11;1.60;;;0.90;;
4957;SDS011;2494;51.872;9.688;2022-09-01T06:30:37;1.03;;;0.97;;
4957;SDS011;2494;51.872;9.688;2022-09-01T06:33:04;1.53;;;1.17;;
4957;SDS011;2494;51.872;9.688;2022-09-01T06:35:33;2.57;;;1.10;;
4957;SDS011;2494;51.872;9.688;2022-09-01T06:38:01;1.77;;;1.03;;
4957;SDS011;2494;51.872;9.688;2022-09-01T06:40:29;4.80;;;1.50;;
4957;SDS011;2494;51.872;9.688;2022-09-01T06:42:56;1.90;;;1.00;;
4957;SDS011;2494;51.872;9.688;2022-09-01T06:45:24;1.20;;;1.00;;
4957;SDS011;2494;51.872;9.688;2022-09-01T06:47:50;2.30;;;1.27;;
4957;SDS011;2494;51.872;9.688;2022-09-01T06:50:18;2.60;;;1.10;;
4957;SDS011;2494;51.872;9.688;2022-09-01T06:52:46;1.73;;;0.93;;
4957;SDS011;2494;51.872;9.688;2022-09-01T06:55:16;2.87;;;1.10;;
4957;SDS011;2494;51.872;9.688;2022-09-01T06:57:42;4.00;;;1.10;;
4957;SDS011;2494;51.872;9.688;2022-09-01T07:00:16;1.20;;;0.80;;
4957;SDS011;2494;51.872;9.688;2022-09-01T07:02:45;2.80;;;1.20;;
4957;SDS011;2494;51.872;9.688;2022-09-01T07:05:13;1.10;;;1.00;;
4957;SDS011;2494;51.872;9.688;2022-09-01T07:07:45;1.20;;;1.10;;
4957;SDS011;2494;51.872;9.688;2022-09-01T07:10:17;1.20;;;1.10;;
4957;SDS011;2494;51.872;9.688;2022-09-01T07:12:46;1.17;;;0.80;;
4957;SDS011;2494;51.872;9.688;2022-09-01T07:15:13;1.57;;;0.90;;
4957;SDS011;2494;51.872;9.688;2022-09-01T07:17:45;1.37;;;1.00;;
4957;SDS011;2494;51.872;9.688;2022-09-01T07:20:13;2.03;;;0.90;;
4957;SDS011;2494;51.872;9.688;2022-09-01T07:22:39;7.07;;;1.57;;
4957;SDS011;2494;51.872;9.688;2022-09-01T07:25:07;2.47;;;1.10;;
4957;SDS011;2494;51.872;9.688;2022-09-01T07:27:38;2.00;;;0.93;;
4957;SDS011;2494;51.872;9.688;2022-09-01T07:30:05;1.90;;;1.00;;
4957;SDS011;2494;51.872;9.688;2022-09-01T07:32:34;1.00;;;0.90;;
4957;SDS011;2494;51.872;9.688;2022-09-01T07:35:01;1.70;;;0.90;;
4957;SDS011;2494;51.872;9.688;2022-09-01T07:37:28;1.33;;;0.80;;
4957;SDS011;2494;51.872;9.688;2022-09-01T07:39:56;1.93;;;0.80;;
4957;SDS011;2494;51.872;9.688;2022-09-01T07:42:22;1.00;;;0.80;;
4957;SDS011;2494;51.872;9.688;2022-09-01T07:44:52;0.80;;;0.77;;
4957;SDS011;2494;51.872;9.688;2022-09-01T07:47:18;2.10;;;1.00;;
4957;SDS011;2494;51.872;9.688;2022-09-01T07:49:45;1.50;;;1.10;;
4957;SDS011;2494;51.872;9.688;2022-09-01T07:52:12;2.60;;;0.90;;
4957;SDS011;2494;51.872;9.688;2022-09-01T07:54:38;1.87;;;0.80;;
4957;SDS011;2494;51.872;9.688;2022-09-01T07:57:05;1.30;;;0.90;;
4957;SDS011;2494;51.872;9.688;2022-09-01T07:59:31;1.60;;;0.90;;
4957;SDS011;2494;51.872;9.688;2022-09-01T08:02:00;1.10;;;0.80;;
4957;SDS011;2494;51.872;9.688;2022-09-01T08:04:30;1.30;;;0.80;;
4957;SDS011;2494;51.872;9.688;2022-09-01T08:06:58;3.07;;;0.90;;
4957;SDS011;2494;51.872;9.688;2022-09-01T08:09:25;1.23;;;0.87;;
4957;SDS011;2494;51.872;9.688;2022-09-01T08:11:51;1.43;;;0.80;;
4957;SDS011;2494;51.872;9.688;2022-09-01T08:14:18;0.90;;;0.80;;
4957;SDS011;2494;51.872;9.688;2022-09-01T08:16:45;2.20;;;0.93;;
4957;SDS011;2494;51.872;9.688;2022-09-01T08:19:13;3.10;;;1.03;;
4957;SDS011;2494;51.872;9.688;2022-09-01T08:21:39;1.30;;;1.03;;
4957;SDS011;2494;51.872;9.688;2022-09-01T08:24:06;3.47;;;1.17;;
4957;SDS011;2494;51.872;9.688;2022-09-01T08:26:32;3.00;;;1.10;;
4957;SDS011;2494;51.872;9.688;2022-09-01T08:28:59;1.50;;;0.80;;
4957;SDS011;2494;51.872;9.688;2022-09-01T08:31:25;1.30;;;1.20;;
4957;SDS011;2494;51.872;9.688;2022-09-01T08:33:52;1.40;;;1.10;;
4957;SDS011;2494;51.872;9.688;2022-09-01T08:36:20;1.17;;;0.90;;
4957;SDS011;2494;51.872;9.688;2022-09-01T08:38:47;1.73;;;1.00;;
4957;SDS011;2494;51.872;9.688;2022-09-01T08:41:15;1.60;;;1.00;;
4957;SDS011;2494;51.872;9.688;2022-09-01T08:43:45;1.23;;;1.00;;
4957;SDS011;2494;51.872;9.688;2022-09-01T08:46:16;4.20;;;1.00;;
4957;SDS011;2494;51.872;9.688;2022-09-01T08:48:45;1.97;;;0.90;;
4957;SDS011;2494;51.872;9.688;2022-09-01T08:51:14;1.30;;;0.90;;
4957;SDS011;2494;51.872;9.688;2022-09-01T08:53:46;1.20;;;1.10;;
4957;SDS011;2494;51.872;9.688;2022-09-01T08:56:14;1.67;;;1.07;;
4957;SDS011;2494;51.872;9.688;2022-09-01T08:58:43;3.07;;;0.97;;
4957;SDS011;2494;51.872;9.688;2022-09-01T09:01:10;2.47;;;1.17;;
4957;SDS011;2494;51.872;9.688;2022-09-01T09:03:41;2.60;;;1.00;;
4957;SDS011;2494;51.872;9.688;2022-09-01T09:09:36;1.40;;;1.10;;
4957;SDS011;2494;51.872;9.688;2022-09-01T09:12:13;1.00;;;0.90;;
4957;SDS011;2494;51.872;9.688;2022-09-01T09:14:44;1.50;;;1.03;;
4957;SDS011;2494;51.872;9.688;2022-09-01T09:17:15;2.33;;;1.13;;
4957;SDS011;2494;51.872;9.688;2022-09-01T09:19:43;2.03;;;1.07;;
4957;SDS011;2494;51.872;9.688;2022-09-01T09:22:11;1.80;;;0.90;;
4957;SDS011;2494;51.872;9.688;2022-09-01T09:24:42;1.13;;;1.03;;
4957;SDS011;2494;51.872;9.688;2022-09-01T09:27:18;1.50;;;0.90;;
4957;SDS011;2494;51.872;9.688;2022-09-01T09:29:46;1.30;;;1.07;;
4957;SDS011;2494;51.872;9.688;2022-09-01T09:32:12;2.10;;;1.10;;
4957;SDS011;2494;51.872;9.688;2022-09-01T09:34:39;0.83;;;0.77;;
4957;SDS011;2494;51.872;9.688;2022-09-01T09:37:19;2.90;;;1.20;;
4957;SDS011;2494;51.872;9.688;2022-09-01T09:39:57;1.10;;;1.00;;
4957;SDS011;2494;51.872;9.688;2022-09-01T09:42:26;1.10;;;1.00;;
4957;SDS011;2494;51.872;9.688;2022-09-01T09:44:53;1.00;;;0.90;;
4957;SDS011;2494;51.872;9.688;2022-09-01T09:47:32;1.27;;;1.00;;
4957;SDS011;2494;51.872;9.688;2022-09-01T09:50:09;1.47;;;0.90;;
4957;SDS011;2494;51.872;9.688;2022-09-01T09:52:36;1.27;;;1.00;;
4957;SDS011;2494;51.872;9.688;2022-09-01T09:55:05;1.27;;;1.13;;
4957;SDS011;2494;51.872;9.688;2022-09-01T09:57:37;1.00;;;0.90;;
4957;SDS011;2494;51.872;9.688;2022-09-01T10:00:05;0.93;;;0.80;;
4957;SDS011;2494;51.872;9.688;2022-09-01T10:02:36;1.50;;;0.90;;
4957;SDS011;2494;51.872;9.688;2022-09-01T10:07:44;1.20;;;0.83;;
4957;SDS011;2494;51.872;9.688;2022-09-01T10:10:26;0.70;;;0.70;;
4957;SDS011;2494;51.872;9.688;2022-09-01T10:12:53;1.00;;;0.70;;
4957;SDS011;2494;51.872;9.688;2022-09-01T10:18:43;1.83;;;1.10;;
4957;SDS011;2494;51.872;9.688;2022-09-01T10:21:11;1.57;;;0.87;;
4957;SDS011;2494;51.872;9.688;2022-09-01T10:23:39;1.17;;;0.90;;
4957;SDS011;2494;51.872;9.688;2022-09-01T10:26:10;1.00;;;0.90;;
4957;SDS011;2494;51.872;9.688;2022-09-01T10:28:40;1.17;;;0.70;;
4957;SDS011;2494;51.872;9.688;2022-09-01T10:31:09;1.10;;;0.90;;
4957;SDS011;2494;51.872;9.688;2022-09-01T10:33:36;1.73;;;0.80;;
4957;SDS011;2494;51.872;9.688;2022-09-01T10:36:02;1.00;;;0.90;;
4957;SDS011;2494;51.872;9.688;2022-09-01T10:38:31;1.60;;;1.00;;
4957;SDS011;2494;51.872;9.688;2022-09-01T10:40:58;1.70;;;0.83;;
4957;SDS011;2494;51.872;9.688;2022-09-01T10:43:35;1.57;;;0.90;;
4957;SDS011;2494;51.872;9.688;2022-09-01T10:48:51;1.30;;;0.90;;
4957;SDS011;2494;51.872;9.688;2022-09-01T10:51:40;0.83;;;0.80;;
4957;SDS011;2494;51.872;9.688;2022-09-01T10:54:08;1.53;;;0.90;;
4957;SDS011;2494;51.872;9.688;2022-09-01T10:56:36;1.37;;;1.27;;
4957;SDS011;2494;51.872;9.688;2022-09-01T10:59:06;1.60;;;0.90;;
4957;SDS011;2494;51.872;9.688;2022-09-01T11:04:18;0.90;;;0.80;;
4957;SDS011;2494;51.872;9.688;2022-09-01T11:06:57;1.57;;;1.03;;
4957;SDS011;2494;51.872;9.688;2022-09-01T11:09:26;1.50;;;0.90;;
4957;SDS011;2494;51.872;9.688;2022-09-01T11:12:07;0.80;;;0.80;;
4957;SDS011;2494;51.872;9.688;2022-09-01T11:14:47;3.00;;;0.70;;
4957;SDS011;2494;51.872;9.688;2022-09-01T11:17:15;1.27;;;1.17;;
4957;SDS011;2494;51.872;9.688;2022-09-01T11:19:42;2.10;;;0.70;;
4957;SDS011;2494;51.872;9.688;2022-09-01T11:22:23;1.17;;;0.83;;
4957;SDS011;2494;51.872;9.688;2022-09-01T11:25:04;2.43;;;0.90;;
4957;SDS011;2494;51.872;9.688;2022-09-01T11:33:11;0.80;;;0.80;;
4957;SDS011;2494;51.872;9.688;2022-09-01T11:35:38;1.90;;;0.93;;
4957;SDS011;2494;51.872;9.688;2022-09-01T11:38:04;2.03;;;0.80;;
4957;SDS011;2494;51.872;9.688;2022-09-01T11:40:34;1.70;;;0.80;;
4957;SDS011;2494;51.872;9.688;2022-09-01T11:43:02;2.43;;;1.27;;
4957;SDS011;2494;51.872;9.688;2022-09-01T11:45:30;0.70;;;0.70;;
4957;SDS011;2494;51.872;9.688;2022-09-01T11:47:59;2.83;;;0.90;;
4957;SDS011;2494;51.872;9.688;2022-09-01T11:50:29;1.27;;;0.60;;
4957;SDS011;2494;51.872;9.688;2022-09-01T11:52:57;2.40;;;0.90;;
4957;SDS011;2494;51.872;9.688;2022-09-01T11:55:28;1.57;;;0.90;;
4957;SDS011;2494;51.872;9.688;2022-09-01T11:57:55;0.77;;;0.77;;
4957;SDS011;2494;51.872;9.688;2022-09-01T12:00:24;4.93;;;1.87;;
4957;SDS011;2494;51.872;9.688;2022-09-01T12:02:51;5.63;;;1.00;;
4957;SDS011;2494;51.872;9.688;2022-09-01T12:05:23;0.93;;;0.80;;
4957;SDS011;2494;51.872;9.688;2022-09-01T12:08:02;2.63;;;0.90;;
4957;SDS011;2494;51.872;9.688;2022-09-01T12:10:30;1.00;;;0.90;;
4957;SDS011;2494;51.872;9.688;2022-09-01T12:13:01;1.10;;;0.93;;
4957;SDS011;2494;51.872;9.688;2022-09-01T12:15:28;3.47;;;0.83;;
4957;SDS011;2494;51.872;9.688;2022-09-01T12:18:08;1.57;;;0.70;;
4957;SDS011;2494;51.872;9.688;2022-09-01T12:20:35;1.47;;;0.73;;
4957;SDS011;2494;51.872;9.688;2022-09-01T12:23:13;0.90;;;0.90;;
4957;SDS011;2494;51.872;9.688;2022-09-01T12:25:42;1.70;;;0.87;;
4957;SDS011;2494;51.872;9.688;2022-09-01T12:28:09;1.23;;;0.70;;
4957;SDS011;2494;51.872;9.688;2022-09-01T12:30:36;0.70;;;0.70;;
4957;SDS011;2494;51.872;9.688;2022-09-01T12:33:05;5.43;;;0.80;;
4957;SDS011;2494;51.872;9.688;2022-09-01T12:35:32;3.80;;;0.97;;
4957;SDS011;2494;51.872;9.688;2022-09-01T12:40:41;0.90;;;0.70;;
4957;SDS011;2494;51.872;9.688;2022-09-01T12:43:08;0.90;;;0.77;;
4957;SDS011;2494;51.872;9.688;2022-09-01T12:45:38;0.97;;;0.80;;
4957;SDS011;2494;51.872;9.688;2022-09-01T12:48:05;0.90;;;0.70;;
4957;SDS011;2494;51.872;9.688;2022-09-01T12:50:36;1.53;;;0.77;;
4957;SDS011;2494;51.872;9.688;2022-09-01T12:53:13;0.90;;;0.90;;
4957;SDS011;2494;51.872;9.688;2022-09-01T12:55:43;0.90;;;0.80;;
4957;SDS011;2494;51.872;9.688;2022-09-01T12:58:19;1.03;;;0.73;;
4957;SDS011;2494;51.872;9.688;2022-09-01T13:00:53;2.43;;;0.90;;
4957;SDS011;2494;51.872;9.688;2022-09-01T13:03:20;1.03;;;0.80;;
4957;SDS011;2494;51.872;9.688;2022-09-01T13:05:48;1.27;;;0.90;;
4957;SDS011;2494;51.872;9.688;2022-09-01T13:08:17;1.13;;;0.97;;
4957;SDS011;2494;51.872;9.688;2022-09-01T13:10:46;1.73;;;0.70;;
4957;SDS011;2494;51.872;9.688;2022-09-01T13:13:13;1.00;;;0.90;;
4957;SDS011;2494;51.872;9.688;2022-09-01T13:15:40;0.90;;;0.70;;
4957;SDS011;2494;51.872;9.688;2022-09-01T13:18:08;2.00;;;0.70;;
4957;SDS011;2494;51.872;9.688;2022-09-01T13:20:35;0.90;;;0.80;;
4957;SDS011;2494;51.872;9.688;2022-09-01T13:23:01;1.80;;;1.10;;
4957;SDS011;2494;51.872;9.688;2022-09-01T13:25:28;2.77;;;0.90;;
4957;SDS011;2494;51.872;9.688;2022-09-01T13:27:56;0.80;;;0.80;;
4957;SDS011;2494;51.872;9.688;2022-09-01T13:30:24;2.17;;;0.80;;
4957;SDS011;2494;51.872;9.688;2022-09-01T13:32:52;0.90;;;0.90;;
4957;SDS011;2494;51.872;9.688;2022-09-01T13:35:19;0.80;;;0.80;;
4957;SDS011;2494;51.872;9.688;2022-09-01T13:37:47;1.40;;;0.70;;
4957;SDS011;2494;51.872;9.688;2022-09-01T13:40:14;1.63;;;1.07;;
4957;SDS011;2494;51.872;9.688;2022-09-01T13:42:41;3.47;;;0.80;;
4957;SDS011;2494;51.872;9.688;2022-09-01T13:45:10;0.87;;;0.87;;
4957;SDS011;2494;51.872;9.688;2022-09-01T13:47:37;5.60;;;0.70;;
4957;SDS011;2494;51.872;9.688;2022-09-01T13:50:05;1.20;;;0.77;;
4957;SDS011;2494;51.872;9.688;2022-09-01T13:52:32;1.53;;;0.70;;
4957;SDS011;2494;51.872;9.688;2022-09-01T13:54:59;0.87;;;0.60;;
4957;SDS011;2494;51.872;9.688;2022-09-01T13:57:25;0.80;;;0.80;;
4957;SDS011;2494;51.872;9.688;2022-09-01T13:59:52;0.73;;;0.70;;
4957;SDS011;2494;51.872;9.688;2022-09-01T14:02:22;1.30;;;0.60;;
4957;SDS011;2494;51.872;9.688;2022-09-01T14:04:48;0.97;;;0.70;;
4957;SDS011;2494;51.872;9.688;2022-09-01T14:07:15;1.00;;;0.70;;
4957;SDS011;2494;51.872;9.688;2022-09-01T14:09:43;0.90;;;0.70;;
4957;SDS011;2494;51.872;9.688;2022-09-01T14:12:09;0.70;;;0.70;;
4957;SDS011;2494;51.872;9.688;2022-09-01T14:14:36;3.20;;;0.80;;
4957;SDS011;2494;51.872;9.688;2022-09-01T14:17:02;2.13;;;0.80;;
4957;SDS011;2494;51.872;9.688;2022-09-01T14:19:30;0.80;;;0.80;;
4957;SDS011;2494;51.872;9.688;2022-09-01T14:21:58;0.97;;;0.80;;
4957;SDS011;2494;51.872;9.688;2022-09-01T14:24:24;0.80;;;0.80;;
4957;SDS011;2494;51.872;9.688;2022-09-01T14:26:52;1.43;;;0.83;;
4957;SDS011;2494;51.872;9.688;2022-09-01T14:29:18;1.33;;;0.70;;
4957;SDS011;2494;51.872;9.688;2022-09-01T14:31:45;1.23;;;0.57;;
4957;SDS011;2494;51.872;9.688;2022-09-01T14:34:14;1.00;;;0.70;;
4957;SDS011;2494;51.872;9.688;2022-09-01T14:36:44;1.43;;;1.00;;
4957;SDS011;2494;51.872;9.688;2022-09-01T14:39:11;1.47;;;0.70;;
4957;SDS011;2494;51.872;9.688;2022-09-01T14:41:38;2.00;;;0.80;;
4957;SDS011;2494;51.872;9.688;2022-09-01T14:44:04;0.90;;;0.90;;
4957;SDS011;2494;51.872;9.688;2022-09-01T14:46:32;0.80;;;0.70;;
4957;SDS011;2494;51.872;9.688;2022-09-01T14:49:01;0.70;;;0.70;;
4957;SDS011;2494;51.872;9.688;2022-09-01T14:51:29;0.70;;;0.70;;
4957;SDS011;2494;51.872;9.688;2022-09-01T14:53:57;1.70;;;0.73;;
4957;SDS011;2494;51.872;9.688;2022-09-01T14:56:24;0.80;;;0.60;;
4957;SDS011;2494;51.872;9.688;2022-09-01T14:58:51;2.00;;;0.80;;
4957;SDS011;2494;51.872;9.688;2022-09-01T15:01:22;1.07;;;0.77;;
4957;SDS011;2494;51.872;9.688;2022-09-01T15:03:49;0.80;;;0.70;;
4957;SDS011;2494;51.872;9.688;2022-09-01T15:06:17;1.90;;;0.90;;
4957;SDS011;2494;51.872;9.688;2022-09-01T15:08:44;0.77;;;0.67;;
4957;SDS011;2494;51.872;9.688;2022-09-01T15:11:13;3.93;;;1.10;;
4957;SDS011;2494;51.872;9.688;2022-09-01T15:13:40;3.83;;;0.70;;
4957;SDS011;2494;51.872;9.688;2022-09-01T15:16:11;1.57;;;0.60;;
4957;SDS011;2494;51.872;9.688;2022-09-01T15:18:38;1.13;;;0.77;;
4957;SDS011;2494;51.872;9.688;2022-09-01T15:21:05;2.50;;;0.97;;
4957;SDS011;2494;51.872;9.688;2022-09-01T15:23:32;2.60;;;0.70;;
4957;SDS011;2494;51.872;9.688;2022-09-01T15:25:58;0.90;;;0.80;;
4957;SDS011;2494;51.872;9.688;2022-09-01T15:28:26;1.90;;;0.70;;
4957;SDS011;2494;51.872;9.688;2022-09-01T15:30:52;1.30;;;0.83;;
4957;SDS011;2494;51.872;9.688;2022-09-01T15:33:21;0.80;;;0.70;;
4957;SDS011;2494;51.872;9.688;2022-09-01T15:35:47;0.80;;;0.67;;
4957;SDS011;2494;51.872;9.688;2022-09-01T15:38:14;1.80;;;0.80;;
4957;SDS011;2494;51.872;9.688;2022-09-01T15:40:41;0.77;;;0.70;;
4957;SDS011;2494;51.872;9.688;2022-09-01T15:43:08;1.20;;;0.70;;
4957;SDS011;2494;51.872;9.688;2022-09-01T15:45:36;2.10;;;0.73;;